createdAt,value
2018-06-21T00:01:27.825Z,99.90
2018-06-21T00:03:56.310Z,99.90
2018-06-21T00:06:24.850Z,99.90
2018-06-21T00:08:53.402Z,99.90
2018-06-21T00:11:21.960Z,99.90
2018-06-21T00:13:50.476Z,99.90
2018-06-21T00:16:19.058Z,99.90
2018-06-21T00:18:47.591Z,99.90
2018-06-21T00:21:16.157Z,99.90
2018-06-21T00:23:44.784Z,99.90
2018-06-21T00:26:13.373Z,99.90
2018-06-21T00:31:10.098Z,99.90
2018-06-21T00:33:38.637Z,99.90
2018-06-21T00:36:07.277Z,99.90
2018-06-21T00:38:35.908Z,99.90
2018-06-21T00:41:04.415Z,99.90
2018-06-21T00:43:32.954Z,99.90
2018-06-21T00:46:01.437Z,99.90
2018-06-21T00:48:30.042Z,99.90
2018-06-21T00:50:58.550Z,99.90
2018-06-21T00:53:27.095Z,99.90
2018-06-21T00:56:06.742Z,99.90
2018-06-21T00:58:35.250Z,99.90
2018-06-21T01:01:03.799Z,99.90
2018-06-21T01:03:32.336Z,99.90
2018-06-21T01:06:00.848Z,99.90
2018-06-21T01:08:29.369Z,99.90
2018-06-21T01:10:57.941Z,99.90
2018-06-21T01:13:26.485Z,99.90
2018-06-21T01:15:55.008Z,99.90
2018-06-21T01:18:23.535Z,99.90
2018-06-21T01:20:52.021Z,99.90
2018-06-21T01:23:20.562Z,99.90
2018-06-21T01:25:49.069Z,99.90
2018-06-21T01:28:17.561Z,99.90
2018-06-21T01:30:46.133Z,99.90
2018-06-21T01:33:14.626Z,99.90
2018-06-21T01:35:43.113Z,99.90
2018-06-21T01:38:11.733Z,99.90
2018-06-21T01:40:40.264Z,99.90
2018-06-21T01:43:08.793Z,99.90
2018-06-21T01:45:37.352Z,99.90
2018-06-21T01:48:06.206Z,99.90
2018-06-21T01:50:34.761Z,99.90
2018-06-21T01:53:03.301Z,99.90
2018-06-21T01:55:31.889Z,99.90
2018-06-21T01:58:00.409Z,99.90
2018-06-21T02:00:29.002Z,99.90
2018-06-21T02:02:57.545Z,99.90
2018-06-21T02:05:26.101Z,99.90
2018-06-21T02:07:54.634Z,99.90
2018-06-21T02:10:23.177Z,99.90
2018-06-21T02:12:51.729Z,99.90
2018-06-21T02:15:20.307Z,99.90
2018-06-21T02:17:48.948Z,99.90
2018-06-21T02:20:17.577Z,99.90
2018-06-21T02:22:46.090Z,99.90
2018-06-21T02:25:14.632Z,99.90
2018-06-21T02:27:43.185Z,99.90
2018-06-21T02:30:11.797Z,99.90
2018-06-21T02:32:40.473Z,99.90
2018-06-21T02:35:09.112Z,99.90
2018-06-21T02:40:06.002Z,99.90
2018-06-21T02:42:34.565Z,99.90
2018-06-21T02:45:03.109Z,99.90
2018-06-21T02:47:31.663Z,99.90
2018-06-21T02:50:00.197Z,99.90
2018-06-21T02:52:28.746Z,99.90
2018-06-21T02:54:57.249Z,99.90
2018-06-21T02:57:25.793Z,99.90
2018-06-21T02:59:54.323Z,99.90
2018-06-21T03:02:22.890Z,99.90
2018-06-21T03:04:51.517Z,99.90
2018-06-21T03:07:20.059Z,99.90
2018-06-21T03:09:48.559Z,99.90
2018-06-21T03:14:50.540Z,99.90
2018-06-21T03:17:19.111Z,99.90
2018-06-21T03:19:47.652Z,99.90
2018-06-21T03:22:16.201Z,99.90
2018-06-21T03:24:44.707Z,99.90
2018-06-21T03:27:13.246Z,99.90
2018-06-21T03:29:41.781Z,99.90
2018-06-21T03:32:10.878Z,99.90
2018-06-21T03:34:39.952Z,99.90
2018-06-21T03:37:08.549Z,99.90
2018-06-21T03:39:37.057Z,99.90
2018-06-21T03:42:05.554Z,99.90
2018-06-21T03:44:34.125Z,99.90
2018-06-21T03:47:03.426Z,99.90
2018-06-21T03:49:31.989Z,99.90
2018-06-21T03:52:00.525Z,99.90
2018-06-21T03:54:29.089Z,99.90
2018-06-21T03:56:57.573Z,99.90
2018-06-21T03:59:26.134Z,99.90
2018-06-21T04:01:54.997Z,99.90
2018-06-21T04:04:23.656Z,99.90
2018-06-21T04:06:52.157Z,99.90
2018-06-21T04:09:20.707Z,99.90
2018-06-21T04:11:49.289Z,99.90
2018-06-21T04:14:17.829Z,99.90
2018-06-21T04:16:46.342Z,99.90
2018-06-21T04:19:14.854Z,99.90
2018-06-21T04:21:43.358Z,99.90
2018-06-21T04:24:11.893Z,99.90
2018-06-21T04:26:40.393Z,99.90
2018-06-21T04:29:09.008Z,99.90
2018-06-21T04:31:37.753Z,99.90
2018-06-21T04:34:06.294Z,99.90
2018-06-21T04:36:35.533Z,99.90
2018-06-21T04:39:06.101Z,99.90
2018-06-21T04:41:34.621Z,99.90
2018-06-21T04:44:03.357Z,99.90
2018-06-21T04:46:31.865Z,99.90
2018-06-21T04:49:00.365Z,99.90
2018-06-21T04:51:28.920Z,99.90
2018-06-21T04:53:57.446Z,99.90
2018-06-21T04:56:26.018Z,99.90
2018-06-21T04:58:54.525Z,99.90
2018-06-21T05:01:23.059Z,99.90
2018-06-21T05:03:51.604Z,99.90
2018-06-21T05:06:20.233Z,99.90
2018-06-21T05:08:48.720Z,99.90
2018-06-21T05:11:17.295Z,99.90
2018-06-21T05:13:45.938Z,99.90
2018-06-21T05:16:14.473Z,99.90
2018-06-21T05:18:43.006Z,99.90
2018-06-21T05:21:11.528Z,99.90
2018-06-21T05:23:40.045Z,99.90
2018-06-21T05:26:08.600Z,99.90
2018-06-21T05:28:37.137Z,99.90
2018-06-21T05:31:05.688Z,99.90
2018-06-21T05:33:34.189Z,99.90
2018-06-21T05:36:02.911Z,99.90
2018-06-21T05:38:31.551Z,99.90
2018-06-21T05:41:00.161Z,99.90
2018-06-21T05:43:28.721Z,99.90
2018-06-21T05:45:57.246Z,99.90
2018-06-21T05:48:26.045Z,99.90
2018-06-21T05:50:55.381Z,99.90
2018-06-21T05:53:23.929Z,99.90
2018-06-21T05:55:52.429Z,99.90
2018-06-21T05:58:21.018Z,99.90
2018-06-21T06:00:49.512Z,99.90
2018-06-21T06:03:18.041Z,99.90
2018-06-21T06:05:46.585Z,99.90
2018-06-21T06:08:15.149Z,99.90
2018-06-21T06:10:44.027Z,99.90
2018-06-21T06:13:12.549Z,99.90
2018-06-21T06:15:41.064Z,99.90
2018-06-21T06:18:09.620Z,99.90
2018-06-21T06:20:38.101Z,99.90
2018-06-21T06:23:06.627Z,99.90
2018-06-21T06:25:35.120Z,99.90
2018-06-21T06:28:03.889Z,99.90
2018-06-21T06:30:32.438Z,99.90
2018-06-21T06:33:00.973Z,99.90
2018-06-21T06:35:30.912Z,99.90
2018-06-21T06:38:00.533Z,99.90
2018-06-21T06:40:29.123Z,99.90
2018-06-21T06:42:57.909Z,99.90
2018-06-21T06:45:26.501Z,99.90
2018-06-21T06:47:55.006Z,99.90
2018-06-21T06:50:23.637Z,99.90
2018-06-21T06:52:52.198Z,99.90
2018-06-21T06:55:20.742Z,99.90
2018-06-21T06:57:49.262Z,99.90
2018-06-21T07:00:17.773Z,99.90
2018-06-21T07:02:46.258Z,99.90
2018-06-21T07:05:15.147Z,99.90
2018-06-21T07:07:43.628Z,99.90
2018-06-21T07:10:12.140Z,99.90
2018-06-21T07:12:40.652Z,99.90
2018-06-21T07:15:09.170Z,99.90
2018-06-21T07:17:37.692Z,99.90
2018-06-21T07:20:06.353Z,99.90
2018-06-21T07:22:34.844Z,99.90
2018-06-21T07:25:03.420Z,99.90
2018-06-21T07:27:31.900Z,99.90
2018-06-21T07:30:00.398Z,99.90
2018-06-21T07:32:28.893Z,99.90
2018-06-21T07:34:57.410Z,99.90
2018-06-21T07:37:25.883Z,99.90
2018-06-21T07:39:54.410Z,99.90
2018-06-21T07:42:23.057Z,99.90
2018-06-21T07:44:51.529Z,99.90
2018-06-21T07:47:20.073Z,99.90
2018-06-21T07:49:48.565Z,99.90
2018-06-21T07:52:17.099Z,99.90
2018-06-21T07:57:13.801Z,99.90
2018-06-21T07:59:42.320Z,99.90
2018-06-21T08:02:10.889Z,99.90
2018-06-21T08:04:39.394Z,99.90
2018-06-21T08:07:08.024Z,99.90
2018-06-21T08:09:36.543Z,99.90
2018-06-21T08:12:05.065Z,99.90
2018-06-21T08:14:33.656Z,99.90
2018-06-21T08:17:02.197Z,99.90
2018-06-21T08:19:30.679Z,99.90
2018-06-21T08:21:59.218Z,99.90
2018-06-21T08:24:27.669Z,99.90
2018-06-21T08:26:56.398Z,99.90
2018-06-21T08:29:24.810Z,99.90
2018-06-21T08:31:53.494Z,99.90
2018-06-21T08:34:22.000Z,99.90
2018-06-21T08:36:50.533Z,99.90
2018-06-21T08:39:19.196Z,99.90
2018-06-21T08:41:47.669Z,99.90
2018-06-21T08:44:16.218Z,99.90
2018-06-21T08:46:44.741Z,99.90
2018-06-21T08:49:13.262Z,99.90
2018-06-21T08:51:41.773Z,99.90
2018-06-21T08:54:10.263Z,99.90
2018-06-21T08:56:38.762Z,99.90
2018-06-21T08:59:07.309Z,99.90
2018-06-21T09:01:35.783Z,99.90
2018-06-21T09:04:04.611Z,99.90
2018-06-21T09:06:33.171Z,99.90
2018-06-21T09:09:01.725Z,99.90
2018-06-21T09:11:30.244Z,99.90
2018-06-21T09:13:58.729Z,99.90
2018-06-21T09:16:27.283Z,99.90
2018-06-21T09:18:56.007Z,99.90
2018-06-21T09:21:24.497Z,99.70
2018-06-21T09:23:53.014Z,97.70
2018-06-21T09:26:21.538Z,97.50
2018-06-21T09:28:50.061Z,95.80
2018-06-21T09:31:18.612Z,94.70
2018-06-21T09:33:47.283Z,96.10
2018-06-21T09:36:15.825Z,97.10
2018-06-21T09:38:49.635Z,95.00
2018-06-21T09:41:23.419Z,91.90
2018-06-21T09:44:03.830Z,91.80
2018-06-21T09:46:34.366Z,89.10
2018-06-21T09:48:59.644Z,86.10
2018-06-21T09:51:28.165Z,82.60
2018-06-21T09:53:56.698Z,85.50
2018-06-21T09:56:25.242Z,86.70
2018-06-21T09:58:53.767Z,85.60
2018-06-21T10:01:22.337Z,86.30
2018-06-21T10:03:50.840Z,83.40
2018-06-21T10:06:19.383Z,79.50
2018-06-21T10:08:47.865Z,79.30
2018-06-21T10:11:16.416Z,80.70
2018-06-21T10:13:45.011Z,77.30
2018-06-21T10:16:13.569Z,79.40
2018-06-21T10:18:42.167Z,81.00
2018-06-21T10:21:10.717Z,84.80
2018-06-21T10:23:39.186Z,83.50
2018-06-21T10:26:07.730Z,83.00
2018-06-21T10:31:04.429Z,78.00
2018-06-21T10:33:32.929Z,73.20
2018-06-21T10:36:01.453Z,70.90
2018-06-21T10:38:29.942Z,69.60
2018-06-21T10:40:58.471Z,67.90
2018-06-21T10:43:27.004Z,67.60
2018-06-21T10:45:55.530Z,62.80
2018-06-21T10:48:24.050Z,63.50
2018-06-21T10:50:52.537Z,63.90
2018-06-21T10:53:22.430Z,65.70
2018-06-21T10:55:50.918Z,69.50
2018-06-21T10:58:19.504Z,73.90
2018-06-21T11:00:47.988Z,74.10
2018-06-21T11:03:16.524Z,72.60
2018-06-21T11:05:46.181Z,71.50
2018-06-21T11:08:14.717Z,71.90
2018-06-21T11:10:43.237Z,71.10
2018-06-21T11:13:11.813Z,71.90
2018-06-21T11:15:40.345Z,68.80
2018-06-21T11:18:08.983Z,66.90
2018-06-21T11:20:37.537Z,64.70
2018-06-21T11:23:06.089Z,62.70
2018-06-21T11:25:34.637Z,61.70
2018-06-21T11:28:03.181Z,58.20
2018-06-21T11:30:31.708Z,56.80
2018-06-21T11:33:00.331Z,57.60
2018-06-21T11:35:28.865Z,57.70
2018-06-21T11:37:57.622Z,58.10
2018-06-21T11:40:26.263Z,56.60
2018-06-21T11:42:54.858Z,58.10
2018-06-21T11:45:23.405Z,59.00
2018-06-21T11:47:52.030Z,58.60
2018-06-21T11:50:20.619Z,57.70
2018-06-21T11:52:49.168Z,56.90
2018-06-21T11:55:18.346Z,58.70
2018-06-21T11:57:46.871Z,57.80
2018-06-21T12:00:15.398Z,58.10
2018-06-21T12:02:43.929Z,57.10
2018-06-21T12:05:12.650Z,55.70
2018-06-21T12:07:41.208Z,53.20
2018-06-21T12:10:09.765Z,55.30
2018-06-21T12:12:38.484Z,55.50
2018-06-21T12:15:07.073Z,57.90
2018-06-21T12:17:35.590Z,58.00
2018-06-21T12:20:04.135Z,55.70
2018-06-21T12:22:32.687Z,56.20
2018-06-21T12:25:01.413Z,56.00
2018-06-21T12:27:33.503Z,55.60
2018-06-21T12:30:02.010Z,55.30
2018-06-21T12:32:30.909Z,53.90
2018-06-21T12:34:59.461Z,53.10
2018-06-21T12:37:28.150Z,51.00
2018-06-21T12:39:56.665Z,50.30
2018-06-21T12:42:25.179Z,51.20
2018-06-21T12:44:53.706Z,52.00
2018-06-21T12:47:22.323Z,51.80
2018-06-21T12:49:50.895Z,49.80
2018-06-21T12:52:19.614Z,51.00
2018-06-21T12:54:48.336Z,49.20
2018-06-21T12:57:17.056Z,50.90
2018-06-21T12:59:45.831Z,51.50
2018-06-21T13:02:14.476Z,50.40
2018-06-21T13:04:43.750Z,50.70
2018-06-21T13:07:12.544Z,50.40
2018-06-21T13:09:52.505Z,49.20
2018-06-21T13:12:33.648Z,49.50
2018-06-21T13:15:02.881Z,51.20
2018-06-21T13:17:36.737Z,51.20
2018-06-21T13:20:06.329Z,50.10
2018-06-21T13:22:34.957Z,49.80
2018-06-21T13:25:03.733Z,51.00
2018-06-21T13:27:32.385Z,50.70
2018-06-21T13:30:01.185Z,51.20
2018-06-21T13:32:29.975Z,51.90
2018-06-21T13:34:58.875Z,52.20
2018-06-21T13:37:27.514Z,52.30
2018-06-21T13:39:56.195Z,50.80
2018-06-21T13:42:24.909Z,50.90
2018-06-21T13:44:53.779Z,50.50
2018-06-21T13:47:27.354Z,50.10
2018-06-21T13:49:55.953Z,50.10
2018-06-21T13:52:24.463Z,50.00
2018-06-21T13:54:53.040Z,48.60
2018-06-21T13:57:21.554Z,50.50
2018-06-21T13:59:50.125Z,50.60
2018-06-21T14:02:18.640Z,49.80
2018-06-21T14:04:47.233Z,49.00
2018-06-21T14:07:15.878Z,50.20
2018-06-21T14:09:44.453Z,50.40
2018-06-21T14:12:13.041Z,51.10
2018-06-21T14:14:41.652Z,51.00
2018-06-21T14:17:10.189Z,51.30
2018-06-21T14:19:38.733Z,51.20
2018-06-21T14:22:07.244Z,49.80
2018-06-21T14:24:35.834Z,50.20
2018-06-21T14:27:04.374Z,51.00
2018-06-21T14:29:32.933Z,51.80
2018-06-21T14:32:01.452Z,50.80
2018-06-21T14:34:29.987Z,51.10
2018-06-21T14:36:58.490Z,51.00
2018-06-21T14:39:27.106Z,50.80
2018-06-21T14:41:55.649Z,50.60
2018-06-21T14:44:24.228Z,51.60
2018-06-21T14:46:53.520Z,50.10
2018-06-21T14:49:22.057Z,51.40
2018-06-21T14:51:50.612Z,51.10
2018-06-21T14:54:19.145Z,50.70
2018-06-21T14:56:47.765Z,51.20
2018-06-21T14:59:16.976Z,49.50
2018-06-21T15:01:45.625Z,49.10
2018-06-21T15:04:14.241Z,47.50
2018-06-21T15:06:42.811Z,48.50
2018-06-21T15:11:41.720Z,48.60
2018-06-21T15:14:10.432Z,48.90
2018-06-21T15:16:39.085Z,48.80
2018-06-21T15:19:07.584Z,48.90
2018-06-21T15:21:36.121Z,49.80
2018-06-21T15:24:04.737Z,48.90
2018-06-21T15:26:33.283Z,50.50
2018-06-21T15:29:08.802Z,49.10
2018-06-21T15:31:37.648Z,50.30
2018-06-21T15:34:06.137Z,51.20
2018-06-21T15:36:34.659Z,50.40
2018-06-21T15:39:13.019Z,51.50
2018-06-21T15:41:41.539Z,51.70
2018-06-21T15:44:10.225Z,51.70
2018-06-21T15:46:38.732Z,51.70
2018-06-21T15:49:24.392Z,51.60
2018-06-21T15:51:52.969Z,51.50
2018-06-21T15:54:21.484Z,51.80
2018-06-21T15:59:18.145Z,51.20
2018-06-21T16:01:46.734Z,51.60
2018-06-21T16:04:15.454Z,52.40
2018-06-21T16:06:44.189Z,52.40
2018-06-21T16:09:12.745Z,53.40
2018-06-21T16:11:41.226Z,53.30
2018-06-21T16:14:09.773Z,53.50
2018-06-21T16:16:38.300Z,53.30
2018-06-21T16:19:06.866Z,53.30
2018-06-21T16:21:35.381Z,53.90
2018-06-21T16:24:03.947Z,54.50
2018-06-21T16:26:32.453Z,54.50
2018-06-21T16:29:01.355Z,55.30
2018-06-21T16:31:29.877Z,54.40
2018-06-21T16:33:58.452Z,53.30
2018-06-21T16:36:27.659Z,54.00
2018-06-21T16:38:56.199Z,53.00
2018-06-21T16:41:25.618Z,52.10
2018-06-21T16:43:54.156Z,51.80
2018-06-21T16:46:24.564Z,50.70
2018-06-21T16:48:53.194Z,51.40
2018-06-21T16:51:21.716Z,51.50
2018-06-21T16:53:50.250Z,51.30
2018-06-21T16:56:18.806Z,52.20
2018-06-21T16:58:47.338Z,53.80
2018-06-21T17:01:15.870Z,55.00
2018-06-21T17:03:48.117Z,55.70
2018-06-21T17:06:17.886Z,57.00
2018-06-21T17:08:46.438Z,55.80
2018-06-21T17:11:14.990Z,56.40
2018-06-21T17:13:49.489Z,56.40
2018-06-21T17:16:20.286Z,57.10
2018-06-21T17:18:48.870Z,57.30
2018-06-21T17:21:17.390Z,56.00
2018-06-21T17:23:47.218Z,54.70
2018-06-21T17:26:15.741Z,54.80
2018-06-21T17:28:46.346Z,54.60
2018-06-21T17:31:14.878Z,54.60
2018-06-21T17:33:43.823Z,57.00
2018-06-21T17:36:12.414Z,57.80
2018-06-21T17:38:41.117Z,57.80
2018-06-21T17:41:09.710Z,58.30
2018-06-21T17:43:38.460Z,59.10
2018-06-21T17:46:06.945Z,59.40
2018-06-21T17:48:36.118Z,58.30
2018-06-21T17:51:04.658Z,57.70
2018-06-21T17:53:33.206Z,58.70
2018-06-21T17:56:01.697Z,58.00
2018-06-21T17:58:32.043Z,58.20
2018-06-21T18:01:00.602Z,58.30
2018-06-21T18:03:29.154Z,58.40
2018-06-21T18:05:57.645Z,59.90
2018-06-21T18:08:26.197Z,60.00
2018-06-21T18:10:54.710Z,58.90
2018-06-21T18:13:23.354Z,59.50
2018-06-21T18:15:52.950Z,60.30
2018-06-21T18:18:21.499Z,60.20
2018-06-21T18:20:50.028Z,61.20
2018-06-21T18:23:18.589Z,61.70
2018-06-21T18:25:47.155Z,61.80
2018-06-21T18:28:15.669Z,62.30
2018-06-21T18:30:44.197Z,62.80
2018-06-21T18:33:12.782Z,64.70
2018-06-21T18:35:41.265Z,63.70
2018-06-21T18:38:09.762Z,63.50
2018-06-21T18:40:38.374Z,64.00
2018-06-21T18:43:06.909Z,63.90
2018-06-21T18:45:35.454Z,64.20
2018-06-21T18:48:03.966Z,65.10
2018-06-21T18:53:00.673Z,66.20
2018-06-21T18:55:29.313Z,66.50
2018-06-21T18:57:57.837Z,67.20
2018-06-21T19:00:29.111Z,67.80
2018-06-21T19:02:57.713Z,68.30
2018-06-21T19:05:26.362Z,69.30
2018-06-21T19:08:00.183Z,69.10
2018-06-21T19:10:34.213Z,69.10
2018-06-21T19:13:02.750Z,69.10
2018-06-21T19:15:31.272Z,70.30
2018-06-21T19:17:59.774Z,70.20
2018-06-21T19:20:28.318Z,70.20
2018-06-21T19:22:56.784Z,71.00
2018-06-21T19:25:25.306Z,70.90
2018-06-21T19:27:53.861Z,71.80
2018-06-21T19:30:22.388Z,71.60
2018-06-21T19:32:50.898Z,71.70
2018-06-21T19:37:47.599Z,73.30
2018-06-21T19:40:16.249Z,74.00
2018-06-21T19:42:44.766Z,74.80
2018-06-21T19:45:13.312Z,76.60
2018-06-21T19:47:41.837Z,77.60
2018-06-21T19:50:10.342Z,78.10
2018-06-21T19:52:38.941Z,79.10
2018-06-21T19:55:07.426Z,78.60
2018-06-21T19:57:35.976Z,78.30
2018-06-21T20:00:04.638Z,78.20
2018-06-21T20:02:38.598Z,79.10
2018-06-21T20:05:07.162Z,80.50
2018-06-21T20:07:35.656Z,80.80
2018-06-21T20:10:04.163Z,81.60
2018-06-21T20:12:32.768Z,83.30
2018-06-21T20:15:01.335Z,84.40
2018-06-21T20:17:30.174Z,85.60
2018-06-21T20:20:04.192Z,87.20
2018-06-21T20:22:32.869Z,88.80
2018-06-21T20:25:02.248Z,90.10
2018-06-21T20:27:30.963Z,90.70
2018-06-21T20:29:59.474Z,91.30
2018-06-21T20:32:27.994Z,92.00
2018-06-21T20:34:56.490Z,92.80
2018-06-21T20:37:25.418Z,93.50
2018-06-21T20:39:53.973Z,94.50
2018-06-21T20:42:22.568Z,94.50
2018-06-21T20:44:51.161Z,94.80
2018-06-21T20:47:19.945Z,95.20
2018-06-21T20:49:48.542Z,95.10
2018-06-21T20:52:22.721Z,95.30
2018-06-21T20:54:51.517Z,95.10
2018-06-21T20:57:20.056Z,94.30
2018-06-21T20:59:48.601Z,94.30
2018-06-21T21:02:17.076Z,94.50
2018-06-21T21:07:48.724Z,94.70
2018-06-21T21:10:18.119Z,95.20
2018-06-21T21:12:46.629Z,95.60
2018-06-21T21:15:15.505Z,95.50
2018-06-21T21:17:44.003Z,95.50
2018-06-21T21:20:12.493Z,95.10
2018-06-21T21:22:42.613Z,95.50
2018-06-21T21:25:11.134Z,95.60
2018-06-21T21:27:39.645Z,95.90
2018-06-21T21:30:08.975Z,95.10
2018-06-21T21:32:37.461Z,95.10
2018-06-21T21:35:05.997Z,95.30
2018-06-21T21:37:34.478Z,95.60
2018-06-21T21:40:06.418Z,95.90
2018-06-21T21:42:36.105Z,96.20
2018-06-21T21:45:04.741Z,96.70
2018-06-21T21:47:33.229Z,96.60
2018-06-21T21:50:01.675Z,96.50
2018-06-21T21:52:30.199Z,96.70
2018-06-21T21:54:58.725Z,96.80
2018-06-21T21:57:27.263Z,97.20
2018-06-21T22:00:00.337Z,97.50
2018-06-21T22:02:28.805Z,97.70
2018-06-21T22:04:57.249Z,98.30
2018-06-21T22:07:25.729Z,98.50
2018-06-21T22:09:54.209Z,98.60
2018-06-21T22:12:22.690Z,98.30
2018-06-21T22:14:51.136Z,98.70
2018-06-21T22:17:19.621Z,99.20
2018-06-21T22:19:48.066Z,99.50
2018-06-21T22:22:16.604Z,98.90
2018-06-21T22:24:45.047Z,99.40
2018-06-21T22:27:13.497Z,99.20
2018-06-21T22:29:41.966Z,99.60
2018-06-21T22:32:10.445Z,99.90
2018-06-21T22:34:38.882Z,99.90
2018-06-21T22:37:07.338Z,99.90
2018-06-21T22:39:35.768Z,99.90
2018-06-21T22:42:04.257Z,99.90
2018-06-21T22:44:32.730Z,99.90
2018-06-21T22:47:01.157Z,99.90
2018-06-21T22:49:29.637Z,99.90
2018-06-21T22:51:58.062Z,99.90
2018-06-21T22:54:26.569Z,99.90
2018-06-21T22:56:55.027Z,99.90
2018-06-21T22:59:23.507Z,99.90
2018-06-21T23:01:51.946Z,99.90
2018-06-21T23:04:20.441Z,99.90
2018-06-21T23:06:48.902Z,99.90
2018-06-21T23:09:17.393Z,99.90
2018-06-21T23:11:45.877Z,99.90
2018-06-21T23:14:14.377Z,99.90
2018-06-21T23:16:42.863Z,99.90
2018-06-21T23:19:31.578Z,99.90
2018-06-21T23:22:00.742Z,99.90
2018-06-21T23:24:29.266Z,99.90
2018-06-21T23:26:57.689Z,99.90
2018-06-21T23:29:26.178Z,99.90
2018-06-21T23:31:54.657Z,99.90
2018-06-21T23:34:23.183Z,99.90
2018-06-21T23:36:51.869Z,99.90
2018-06-21T23:39:20.348Z,99.90
2018-06-21T23:41:48.845Z,99.90
2018-06-21T23:44:17.326Z,99.90
2018-06-21T23:46:45.807Z,99.90
2018-06-21T23:49:14.455Z,99.90
2018-06-21T23:51:42.950Z,99.90
2018-06-21T23:54:12.726Z,99.90
2018-06-21T23:56:42.597Z,99.90
2018-06-21T23:59:11.037Z,99.90
